Map

Track Data

SID SEASON NUMBER BASIN SUBBASIN NAME ISO_TIME NATURE LAT LON WMO_WIND WMO_PRES WMO_AGENCY TRACK_TYPE DIST2LAND LANDFALL IFLAG USA_AGENCY USA_ATCF_ID USA_LAT USA_LON USA_RECORD USA_STATUS USA_WIND USA_PRES USA_SSHS USA_R34_NE USA_R34_SE USA_R34_SW USA_R34_NW USA_R50_NE USA_R50_SE USA_R50_SW USA_R50_NW USA_R64_NE USA_R64_SE USA_R64_SW USA_R64_NW USA_POCI USA_ROCI USA_RMW USA_EYE TOKYO_LAT TOKYO_LON TOKYO_GRADE TOKYO_WIND TOKYO_PRES TOKYO_R50_DIR TOKYO_R50_LONG TOKYO_R50_SHORT TOKYO_R30_DIR TOKYO_R30_LONG TOKYO_R30_SHORT TOKYO_LAND CMA_LAT CMA_LON CMA_CAT CMA_WIND CMA_PRES HKO_LAT HKO_LON HKO_CAT HKO_WIND HKO_PRES NEWDELHI_LAT NEWDELHI_LON NEWDELHI_GRADE NEWDELHI_WIND NEWDELHI_PRES NEWDELHI_CI NEWDELHI_DP NEWDELHI_POCI REUNION_LAT REUNION_LON REUNION_TYPE REUNION_WIND REUNION_PRES REUNION_TNUM REUNION_CI REUNION_RMW REUNION_R34_NE REUNION_R34_SE REUNION_R34_SW REUNION_R34_NW REUNION_R50_NE REUNION_R50_SE REUNION_R50_SW REUNION_R50_NW REUNION_R64_NE REUNION_R64_SE REUNION_R64_SW REUNION_R64_NW BOM_LAT BOM_LON BOM_TYPE BOM_WIND BOM_PRES BOM_TNUM BOM_CI BOM_RMW BOM_R34_NE BOM_R34_SE BOM_R34_SW BOM_R34_NW BOM_R50_NE BOM_R50_SE BOM_R50_SW BOM_R50_NW BOM_R64_NE BOM_R64_SE BOM_R64_SW BOM_R64_NW BOM_ROCI BOM_POCI BOM_EYE BOM_POS_METHOD BOM_PRES_METHOD NADI_LAT NADI_LON NADI_CAT NADI_WIND NADI_PRES WELLINGTON_LAT WELLINGTON_LON WELLINGTON_WIND WELLINGTON_PRES DS824_LAT DS824_LON DS824_STAGE DS824_WIND DS824_PRES TD9636_LAT TD9636_LON TD9636_STAGE TD9636_WIND TD9636_PRES TD9635_LAT TD9635_LON TD9635_WIND TD9635_PRES TD9635_ROCI NEUMANN_LAT NEUMANN_LON NEUMANN_CLASS NEUMANN_WIND NEUMANN_PRES MLC_LAT MLC_LON MLC_CLASS MLC_WIND MLC_PRES USA_GUST BOM_GUST BOM_GUST_PER REUNION_GUST REUNION_GUST_PER USA_SEAHGT USA_SEARAD_NE USA_SEARAD_SE USA_SEARAD_SW USA_SEARAD_NW STORM_SPEED STORM_DIR
1983319N05157 1983 83 WP MM NOT_NAMED 1983-11-15 00:00:00 NR 4.80000 156.800 main 1053 1018 __________O___ -1 4.80000 156.800 0 6 207
1983319N05157 1983 83 WP MM NOT_NAMED 1983-11-15 03:00:00 NR 4.51296 156.659 main 1018 978 __________P___ -1 4.51296 156.659 0 6 207
1983319N05157 1983 83 WP MM NOT_NAMED 1983-11-15 06:00:00 NR 4.23180 156.515 main 978 953 __________P___ -1 4.23180 156.515 0 6 208
1983319N05157 1983 83 WP MM NOT_NAMED 1983-11-15 09:00:00 NR 3.96244 156.364 main 953 913 __________P___ -1 3.96244 156.364 0 6 211
1983319N05157 1983 83 WP MM NOT_NAMED 1983-11-15 12:00:00 NR 3.71081 156.204 main 913 882 __________P___ -1 3.71081 156.204 0 6 215
1983319N05157 1983 83 WP MM NOT_NAMED 1983-11-15 15:00:00 NR 3.48285 156.031 main 882 857 __________P___ -1 3.48285 156.031 0 6 220
1983319N05157 1983 83 WP MM NOT_NAMED 1983-11-15 18:00:00 NR 3.28446 155.841 main 851 821 __________P___ -1 3.28446 155.841 0 5 228
1983319N05157 1983 83 WP MM NOT_NAMED 1983-11-15 21:00:00 NR 3.12154 155.632 main 821 800 __________P___ -1 3.12154 155.632 0 5 237
1983319N05157 1983 83 WP MM NOT_NAMED 1983-11-16 00:00:00 NR 3.00000 155.400 main 800 778 __________O___ -1 3.00000 155.400 0 5 248
1983319N05157 1983 83 WP MM NOT_NAMED 1983-11-16 03:00:00 NR 2.92189 155.144 main 773 761 __________P___ -1 2.92189 155.144 0 5 257
1983319N05157 1983 83 WP MM NOT_NAMED 1983-11-16 06:00:00 NR 2.87393 154.870 main 761 735 __________P___ -1 2.87393 154.870 0 6 262
1983319N05157 1983 83 WP MM NOT_NAMED 1983-11-16 09:00:00 NR 2.83900 154.586 main 735 720 __________P___ -1 2.83900 154.586 0 6 263
1983319N05157 1983 83 WP MM NOT_NAMED 1983-11-16 12:00:00 NR 2.80000 154.300 main 720 696 __________O___ -1 2.80000 154.300 0 6 258
1983319N05157 1983 83 WP MM NOT_NAMED 1983-11-16 15:00:00 NR 2.71999 154.017 main 696 675 __________P___ -1 2.71999 154.017 0 6 254
1983319N05157 1983 83 WP MM NOT_NAMED 1983-11-16 18:00:00 NR 2.63499 153.735 main 670 660 __________P___ -1 2.63499 153.735 0 6 254
1983319N05157 1983 83 WP MM NOT_NAMED 1983-11-16 21:00:00 NR 2.55750 153.461 main 660 636 __________P___ -1 2.55750 153.461 0 6 256
1983319N05157 1983 83 WP MM NOT_NAMED 1983-11-17 00:00:00 NR 2.50000 153.200 main 636 627 __________O___ -1 2.50000 153.200 0 5 261
1983319N05157 1983 83 WP MM NOT_NAMED 1983-11-17 03:00:00 NR 2.47842 152.953 main 627 616 __________P___ -1 2.47842 152.953 0 5 267
1983319N05157 1983 83 WP MM NOT_NAMED 1983-11-17 06:00:00 NR 2.47748 152.720 main 616 609 __________P___ -1 2.47748 152.720 0 5 271
1983319N05157 1983 83 WP MM NOT_NAMED 1983-11-17 09:00:00 NR 2.48780 152.503 main 609 603 __________P___ -1 2.48780 152.503 0 4 273
1983319N05157 1983 83 WP MM NOT_NAMED 1983-11-17 12:00:00 NR 2.50000 152.300 main 603 597 __________O___ -1 2.50000 152.300 0 4 271
1983319N05157 1983 83 WP MM NOT_NAMED 1983-11-17 15:00:00 NR 2.49590 152.127 main 597 595 __________P___ -1 2.49590 152.127 0 3 269
1983319N05157 1983 83 WP MM NOT_NAMED 1983-11-17 18:00:00 NR 2.49245 151.965 main 595 591 __________P___ -1 2.49245 151.965 0 3 269
1983319N05157 1983 83 WP MM NOT_NAMED 1983-11-17 21:00:00 NR 2.49277 151.796 main 591 587 __________P___ -1 2.49277 151.796 0 4 271
1983319N05157 1983 83 WP MM NOT_NAMED 1983-11-18 00:00:00 NR 2.50000 151.600 main 587 585 __________O___ -1 2.50000 151.600 0 5 273
1983319N05157 1983 83 WP MM NOT_NAMED 1983-11-18 03:00:00 NR 2.51783 151.346 main 584 583 __________P___ -1 2.51783 151.346 0 5 275
1983319N05157 1983 83 WP MM NOT_NAMED 1983-11-18 06:00:00 NR 2.54253 151.065 main 583 582 __________P___ -1 2.54253 151.065 0 6 275
1983319N05157 1983 83 WP MM NOT_NAMED 1983-11-18 09:00:00 NR 2.57096 150.777 main 594 594 __________P___ -1 2.57096 150.777 0 6 276
1983319N05157 1983 83 WP MM NOT_NAMED 1983-11-18 12:00:00 NR 2.60000 150.500 main 595 595 __________O___ -1 2.60000 150.500 0 5 273
1983319N05157 1983 83 WP MM NOT_NAMED 1983-11-18 15:00:00 NR 2.59242 150.297 main 597 597 __________P___ -1 2.59242 150.297 0 4 269
1983319N05157 1983 83 WP MM NOT_NAMED 1983-11-18 18:00:00 NR 2.58987 150.102 main 600 595 __________P___ -1 2.58987 150.102 0 4 273
1983319N05157 1983 83 WP MM NOT_NAMED 1983-11-18 21:00:00 NR 2.61740 149.881 main 595 590 __________P___ -1 2.61740 149.881 0 5 282
1983319N05157 1983 83 WP MM NOT_NAMED 1983-11-19 00:00:00 NR 2.70000 149.600 main 591 584 __________O___ -1 2.70000 149.600 0 7 288
1983319N05157 1983 83 WP MM NOT_NAMED 1983-11-19 03:00:00 NR 2.83921 149.182 main 584 584 __________P___ -1 2.83921 149.182 0 10 291
1983319N05157 1983 83 WP MM NOT_NAMED 1983-11-19 06:00:00 NR 3.03773 148.708 main 589 589 __________P___ -1 3.03773 148.708 0 11 295
1983319N05157 1983 83 WP MM NOT_NAMED 1983-11-19 09:00:00 NR 3.29236 148.229 main 611 611 __________P___ -1 3.29236 148.229 0 11 302
1983319N05157 1983 83 WP MM NOT_NAMED 1983-11-19 12:00:00 NR 3.60000 147.800 main 640 640 __________O___ -1 3.60000 147.800 0 10 312
1983319N05157 1983 83 WP MM NOT_NAMED 1983-11-19 15:00:00 NR 3.96989 147.476 main 683 683 __________P___ -1 3.96989 147.476 0 10 323
1983319N05157 1983 83 WP MM NOT_NAMED 1983-11-19 18:00:00 NR 4.38487 147.210 main 728 728 __________P___ -1 4.38487 147.210 0 10 330
1983319N05157 1983 83 WP MM NOT_NAMED 1983-11-19 21:00:00 NR 4.80743 146.989 main 773 773 __________P___ -1 4.80743 146.989 0 9 333
1983319N05157 1983 83 WP MM NOT_NAMED 1983-11-20 00:00:00 NR 5.20000 146.800 main 818 818 __________O___ -1 5.20000 146.800 0 8 333
1983319N05157 1983 83 WP MM NOT_NAMED 1983-11-20 03:00:00 NR 5.51084 146.633 main 851 851 __________P___ -1 5.51084 146.633 0 7 333
1983319N05157 1983 83 WP MM NOT_NAMED 1983-11-20 06:00:00 NR 5.78736 146.492 main 885 885 __________P___ -1 5.78736 146.492 0 6 333
1983319N05157 1983 83 WP MM NOT_NAMED 1983-11-20 09:00:00 NR 6.04521 146.355 main 907 907 __________P___ -1 6.04521 146.355 0 6 330
1983319N05157 1983 83 WP MM NOT_NAMED 1983-11-20 12:00:00 NR 6.30000 146.200 main 942 942 __________O___ -1 6.30000 146.200 0 7 327
1983319N05157 1983 83 WP MM NOT_NAMED 1983-11-20 15:00:00 NR 6.60346 145.989 main 977 977 __________P___ -1 6.60346 145.989 0 8 324
1983319N05157 1983 83 WP MM NOT_NAMED 1983-11-20 18:00:00 NR 6.90254 145.758 main 1012 1012 __________P___ -1 6.90254 145.758 0 7 321
1983319N05157 1983 83 WP MM NOT_NAMED 1983-11-20 21:00:00 NR 7.17534 145.523 main 1049 1049 __________P___ -1 7.17534 145.523 0 7 318
1983319N05157 1983 83 WP MM NOT_NAMED 1983-11-21 00:00:00 NR 7.40000 145.300 main 1074 1074 __________O___ -1 7.40000 145.300 2 5 316
1983319N05157 1983 83 WP MM NOT_NAMED 1983-11-21 03:00:00 NR 7.55415 145.151 main 1098 1098 __________P___ -1 7.55415 145.151 2 3 315
1983319N05157 1983 83 WP MM NOT_NAMED 1983-11-21 06:00:00 NR 7.62772 145.068 main 1099 1099 O_________P___ jtwc_wp WP221983 7.50000 145.300 25 -1 7.65965 145.010 2 3 300
1983319N05157 1983 83 WP MM NOT_NAMED 1983-11-21 09:00:00 NR 7.70941 144.878 main 1114 1114 P_________P___ WP221983 7.65755 144.958 25 -1 7.73534 144.839 2 5 290
1983319N05157 1983 83 WP MM NOT_NAMED 1983-11-21 12:00:00 NR 7.80000 144.600 main 1131 1131 O_________O___ jtwc_wp WP221983 7.80000 144.600 25 -1 7.80000 144.600 1 25 7 286
1983319N05157 1983 83 WP MM NOT_NAMED 1983-11-21 15:00:00 NR 7.90073 144.223 main 1151 1151 P_________P___ WP221983 7.91496 144.215 25 -1 7.86886 144.267 1 25 8 283
1983319N05157 1983 83 WP MM NOT_NAMED 1983-11-21 18:00:00 NR 7.98268 143.798 main 1173 1173 O_________P___ jtwc_wp WP221983 8.00000 143.800 25 -1 7.94321 143.855 1 25 9 279
1983319N05157 1983 83 WP MM NOT_NAMED 1983-11-21 21:00:00 NR 8.04701 143.340 main 1189 1189 P_________P___ WP221983 8.05752 143.342 25 -1 8.02094 143.391 1 25 9 278
1983319N05157 1983 83 WP MM NOT_NAMED 1983-11-22 00:00:00 NR 8.10000 142.900 main 1203 1190 O_________O___ jtwc_wp WP221983 8.10000 142.900 25 -1 8.10000 142.900 1 25 8 277
1983319N05157 1983 83 WP MM NOT_NAMED 1983-11-22 03:00:00 NR 8.14331 142.537 main 1186 1184 P_____________ WP221983 8.14751 142.528 25 -1 1 7 277
1983319N05157 1983 83 WP MM NOT_NAMED 1983-11-22 06:00:00 NR 8.18487 142.210 main 1184 O_____________ jtwc_wp WP221983 8.20000 142.200 25 -1 1 7 277

Digital Typhoon Data and Search

About IBTrACS Database

This database is a web-friendly format of International Best Track Archive for Climate Stewardship (IBTrACS), a global best track data archive curated by NOAA dating back to 1842.

Updated: 2021-11-26